createdAt,value
2023-03-26T00:00:29.322Z,15.47
2023-03-26T00:05:35.068Z,17.15
2023-03-26T00:10:40.154Z,20.00
2023-03-26T00:15:42.046Z,17.60
2023-03-26T00:20:46.654Z,15.82
2023-03-26T00:25:50.933Z,16.25
2023-03-26T00:31:04.841Z,12.88
2023-03-26T00:36:14.688Z,17.20
2023-03-26T00:41:22.776Z,16.27
2023-03-26T00:46:26.260Z,18.92
2023-03-26T00:51:28.967Z,18.20
2023-03-26T00:56:30.890Z,16.73
2023-03-26T01:01:32.769Z,20.33
2023-03-26T01:06:37.993Z,13.80
2023-03-26T01:11:39.775Z,17.70
2023-03-26T01:16:47.900Z,23.05
2023-03-26T01:21:49.597Z,36.10
2023-03-26T01:27:10.021Z,20.23
2023-03-26T01:32:38.066Z,19.77
2023-03-26T01:37:52.569Z,18.58
2023-03-26T01:43:24.524Z,35.70
2023-03-26T01:48:36.852Z,18.35
2023-03-26T01:53:43.666Z,17.70
2023-03-26T01:59:07.450Z,16.52
2023-03-26T02:04:24.751Z,18.60
2023-03-26T02:09:31.110Z,17.53
2023-03-26T02:14:32.783Z,20.17
2023-03-26T02:19:34.618Z,14.70
2023-03-26T02:24:36.327Z,16.15
2023-03-26T02:29:39.958Z,19.60
2023-03-26T02:34:42.320Z,15.35
2023-03-26T02:39:46.302Z,17.33
2023-03-26T02:44:47.993Z,11.90
2023-03-26T02:49:49.682Z,16.52
2023-03-26T02:54:51.733Z,21.67
2023-03-26T02:59:53.527Z,14.00
2023-03-26T03:05:01.618Z,17.70
2023-03-26T03:10:08.774Z,19.92
2023-03-26T03:15:13.158Z,16.70
2023-03-26T03:20:15.661Z,13.05
2023-03-26T03:25:26.171Z,16.33
2023-03-26T03:30:29.933Z,14.55
2023-03-26T03:35:31.964Z,21.58
2023-03-26T03:40:33.757Z,19.67
2023-03-26T03:45:35.698Z,17.60
2023-03-26T03:50:38.633Z,17.35
2023-03-26T03:55:43.983Z,13.32
2023-03-26T04:00:52.918Z,18.40
2023-03-26T04:05:55.667Z,17.40
2023-03-26T04:10:57.492Z,15.68
2023-03-26T04:15:59.547Z,14.40
2023-03-26T04:21:05.277Z,20.08
2023-03-26T04:26:10.535Z,20.00
2023-03-26T04:31:20.184Z,15.90
2023-03-26T04:36:28.647Z,20.50
2023-03-26T04:41:30.387Z,18.23
2023-03-26T04:46:33.735Z,18.77
2023-03-26T04:51:41.772Z,22.25
2023-03-26T04:57:03.596Z,18.23
2023-03-26T05:02:06.247Z,18.25
2023-03-26T05:07:09.707Z,29.85
2023-03-26T05:12:11.416Z,21.13
2023-03-26T05:17:15.368Z,20.95
2023-03-26T05:22:17.163Z,19.38
2023-03-26T05:27:21.994Z,19.70
2023-03-26T05:32:23.830Z,20.92
2023-03-26T05:37:32.000Z,23.20
2023-03-26T05:42:33.746Z,18.73
2023-03-26T05:47:35.593Z,23.42
2023-03-26T05:52:39.926Z,29.58
2023-03-26T05:57:42.854Z,24.13
2023-03-26T06:02:46.504Z,30.23
2023-03-26T06:08:05.854Z,24.35
2023-03-26T06:13:07.646Z,24.38
2023-03-26T06:18:09.842Z,21.40
2023-03-26T06:23:11.722Z,31.15
2023-03-26T06:28:13.943Z,26.65
2023-03-26T06:33:15.767Z,32.67
2023-03-26T06:38:17.480Z,30.02
2023-03-26T06:43:24.640Z,30.80
2023-03-26T06:48:39.718Z,27.33
2023-03-26T06:53:41.649Z,24.20
2023-03-26T06:58:43.414Z,18.33
2023-03-26T07:03:45.273Z,24.85
2023-03-26T07:08:47.096Z,25.17
2023-03-26T07:13:48.765Z,20.67
2023-03-26T07:18:51.039Z,26.92
2023-03-26T07:23:55.044Z,29.23
2023-03-26T07:29:24.233Z,29.58
2023-03-26T07:35:14.920Z,27.90
2023-03-26T07:40:43.826Z,22.10
2023-03-26T07:45:46.248Z,24.42
2023-03-26T07:50:52.152Z,27.05
2023-03-26T07:56:03.402Z,33.40
2023-03-26T08:01:28.175Z,18.17
2023-03-26T08:06:41.127Z,21.88
2023-03-26T08:12:07.870Z,26.67
2023-03-26T08:17:17.718Z,28.95
2023-03-26T08:22:27.531Z,25.10
2023-03-26T08:27:52.010Z,34.40
2023-03-26T08:33:04.543Z,22.48
2023-03-26T08:38:06.647Z,19.98
2023-03-26T08:43:29.263Z,28.70
2023-03-26T08:48:33.842Z,24.98
2023-03-26T08:53:49.949Z,24.83
2023-03-26T08:59:25.303Z,17.13
2023-03-26T09:04:53.963Z,20.02
2023-03-26T09:10:15.804Z,22.75
2023-03-26T09:15:58.712Z,22.63
2023-03-26T09:21:32.964Z,20.45
2023-03-26T09:26:37.489Z,24.17
2023-03-26T09:32:00.308Z,22.40
2023-03-26T09:37:24.643Z,23.20
2023-03-26T09:43:01.463Z,19.92
2023-03-26T09:48:24.141Z,26.10
2023-03-26T09:54:06.361Z,16.25
2023-03-26T09:59:22.258Z,22.65
2023-03-26T10:05:02.400Z,16.88
2023-03-26T10:10:33.596Z,17.65
2023-03-26T10:15:57.931Z,20.30
2023-03-26T10:21:12.651Z,13.02
2023-03-26T10:26:38.942Z,17.45
2023-03-26T10:31:46.785Z,19.27
2023-03-26T10:37:12.826Z,22.38
2023-03-26T10:42:37.272Z,13.95
2023-03-26T10:48:14.989Z,14.38
2023-03-26T10:53:22.841Z,13.47
2023-03-26T10:58:29.232Z,19.88
2023-03-26T11:03:56.753Z,18.75
2023-03-26T11:09:35.072Z,18.73
2023-03-26T11:14:59.721Z,18.88
2023-03-26T11:20:20.083Z,16.33
2023-03-26T11:25:55.742Z,20.65
2023-03-26T11:31:19.801Z,15.55
2023-03-26T11:36:26.342Z,11.23
2023-03-26T11:41:32.561Z,11.73
2023-03-26T11:46:39.306Z,12.00
2023-03-26T11:51:59.345Z,9.37
2023-03-26T11:57:07.906Z,11.55
2023-03-26T12:02:09.892Z,12.38
2023-03-26T12:07:22.767Z,11.32
2023-03-26T12:12:31.517Z,11.25
2023-03-26T12:17:36.890Z,13.82
2023-03-26T12:23:12.234Z,14.10
2023-03-26T12:28:14.296Z,11.77
2023-03-26T12:33:22.428Z,12.07
2023-03-26T12:38:33.499Z,12.48
2023-03-26T12:44:48.417Z,15.60
2023-03-26T12:49:22.232Z,15.77
2023-03-26T12:54:53.746Z,16.20
2023-03-26T13:00:27.446Z,18.45
2023-03-26T13:05:47.576Z,7.93
2023-03-26T13:11:12.197Z,17.50
2023-03-26T13:22:18.197Z,12.63
2023-03-26T13:27:19.886Z,11.60
2023-03-26T13:32:39.641Z,15.15
2023-03-26T13:37:54.606Z,13.77
2023-03-26T13:43:38.222Z,16.73
2023-03-26T13:49:13.318Z,12.65
2023-03-26T13:54:27.061Z,9.52
2023-03-26T13:59:49.833Z,12.07
2023-03-26T14:04:58.236Z,10.80
2023-03-26T14:10:26.622Z,10.63
2023-03-26T14:15:58.100Z,8.52
2023-03-26T14:21:24.475Z,12.35
2023-03-26T14:26:44.537Z,9.60
2023-03-26T14:32:30.968Z,12.45
2023-03-26T14:43:54.308Z,15.98
2023-03-26T14:49:27.197Z,14.52
2023-03-26T14:54:47.950Z,14.63
2023-03-26T15:00:16.709Z,11.15
2023-03-26T15:06:16.308Z,11.32
2023-03-26T15:11:51.855Z,14.90
2023-03-26T15:23:03.985Z,8.77
2023-03-26T15:33:59.565Z,17.38
2023-03-26T15:39:07.088Z,17.55
2023-03-26T15:44:53.538Z,12.88
2023-03-26T15:50:02.572Z,11.77
2023-03-26T15:55:16.269Z,10.93
2023-03-26T16:01:24.553Z,8.73
2023-03-26T16:06:51.750Z,15.27
2023-03-26T16:11:57.196Z,14.45
2023-03-26T16:17:06.357Z,13.35
2023-03-26T16:22:43.041Z,10.57
2023-03-26T16:27:45.740Z,11.93
2023-03-26T16:33:31.591Z,9.55
2023-03-26T16:39:12.665Z,18.30
2023-03-26T16:44:40.303Z,9.80
2023-03-26T16:50:07.779Z,11.23
2023-03-26T16:55:58.950Z,9.93
2023-03-26T17:07:52.681Z,13.73
2023-03-26T17:13:09.161Z,11.52
2023-03-26T17:18:39.279Z,14.57
2023-03-26T17:24:36.748Z,14.27
2023-03-26T17:30:03.952Z,14.00
2023-03-26T17:35:36.780Z,11.63
2023-03-26T17:41:50.426Z,15.13
2023-03-26T17:46:36.327Z,7.85
2023-03-26T17:51:58.497Z,11.13
2023-03-26T17:57:50.199Z,12.55
2023-03-26T18:09:15.784Z,25.67
2023-03-26T18:21:19.719Z,13.65
2023-03-26T18:26:41.384Z,11.82
2023-03-26T18:32:48.666Z,12.73
2023-03-26T18:43:34.375Z,8.02
2023-03-26T18:48:37.266Z,8.95
2023-03-26T18:54:08.143Z,10.95
2023-03-26T18:59:48.479Z,11.75
2023-03-26T19:04:54.357Z,10.98
2023-03-26T19:09:56.787Z,11.32
2023-03-26T19:15:14.634Z,9.57
2023-03-26T19:20:34.612Z,9.98
2023-03-26T19:25:59.888Z,12.55
2023-03-26T19:31:17.947Z,9.52
2023-03-26T19:42:04.784Z,9.23
2023-03-26T19:47:17.072Z,9.32
2023-03-26T19:52:38.546Z,10.30
2023-03-26T19:57:40.310Z,10.48
2023-03-26T20:02:43.601Z,11.40
2023-03-26T20:07:54.840Z,11.75
2023-03-26T20:12:56.743Z,11.88
2023-03-26T20:18:10.140Z,8.68
2023-03-26T20:23:20.395Z,11.25
2023-03-26T20:28:42.480Z,9.43
2023-03-26T20:33:51.981Z,14.88
2023-03-26T20:39:19.127Z,10.77
2023-03-26T20:49:43.257Z,12.65
2023-03-26T20:54:49.517Z,4.72
2023-03-26T20:59:51.605Z,9.98
2023-03-26T21:16:13.070Z,6.93
2023-03-26T21:21:46.314Z,8.82
2023-03-26T21:27:08.421Z,9.75
2023-03-26T21:32:12.346Z,6.13
2023-03-26T21:37:15.776Z,9.93
2023-03-26T21:42:21.124Z,7.82
2023-03-26T21:47:34.980Z,5.05
2023-03-26T21:53:32.248Z,8.57
2023-03-26T21:58:51.540Z,8.13
2023-03-26T22:03:56.883Z,10.05
2023-03-26T22:09:13.745Z,12.98
2023-03-26T22:20:52.102Z,9.52
2023-03-26T22:25:56.822Z,6.97
2023-03-26T22:36:40.292Z,11.82
2023-03-26T22:41:42.976Z,6.82
2023-03-26T22:47:05.873Z,8.43
2023-03-26T22:52:07.765Z,10.70
2023-03-26T22:57:09.720Z,8.23
2023-03-26T23:02:12.437Z,8.35
2023-03-26T23:07:27.526Z,7.13
2023-03-26T23:19:34.741Z,4.10
2023-03-26T23:24:37.944Z,10.00
2023-03-26T23:29:39.775Z,4.30
2023-03-26T23:34:51.895Z,8.95
2023-03-26T23:40:10.482Z,6.25
2023-03-26T23:45:19.589Z,10.63
2023-03-26T23:50:21.555Z,3.92
2023-03-26T23:55:29.957Z,8.63
